Latest Weather Observations for Leonora Airport

IDW60801

Issued at 3:33 pm WST Wednesday 31 August 2016 (issued every 30 minutes, with the page automatically refreshed every 10 minutes)

About weather observations | Map of weather stations | Latest weather observations for WA | Other Formats
Station Details ID: 012241 Name: LEONORA AERO Lat: -28.88 Lon: 121.32 Height: 370.0 m
Data from the previous 72 hours. | See also: Recent months at Leonora Airport
Date/Time
WST
Temp
°C
App
Temp
°C
Dew
Point
°C
Rel
Hum
%
Delta-T
°C
Wind Press
QNH
hPa
Press
MSL
hPa
Rain since
9am
mm
Dir  Spd
km/h
Gust
km/h
Spd
kts
Gust
kts
31/03:30pm 20.6 16.1 4.2 34 8.1 WNW 17 26 9 14 1010.1 1009.5 0.0
31/03:00pm 20.3 13.3 3.9 34 8.0 NW 30 41 16 22 1010.1 1009.5 0.0
31/02:32pm 18.7 11.0 7.2 47 5.9 WNW 37 56 20 30 1010.5 1010.0 0.0
31/02:30pm 18.8 10.6 6.6 45 6.2 WNW 39 56 21 30 1010.6 1010.1 0.0
31/02:22pm 19.3 11.8 6.1 42 6.7 W 35 54 19 29 1010.5 1010.0 0.0
31/02:20pm 20.0 12.9 5.3 38 7.4 W 32 54 17 29 1010.3 1009.8 0.0
31/02:00pm 20.6 12.6 3.8 33 8.2 W 35 46 19 25 1009.8 1009.2 0.0
31/01:42pm 21.4 14.0 1.7 27 9.3 W 30 52 16 28 1009.8 1009.2 0.0
31/01:30pm 21.9 13.8 1.0 25 9.8 W 33 43 18 23 1009.8 1009.2 0.0
31/01:00pm 22.2 14.6 0.7 24 10.0 WNW 30 37 16 20 1009.9 1009.3 0.0
31/12:30pm 22.5 15.0 0.9 24 10.1 WNW 30 48 16 26 1010.2 1009.6 0.0
31/12:00pm 22.6 15.8 1.0 24 10.1 WNW 26 35 14 19 1010.8 1010.3 0.0
31/11:30am 22.7 15.6 1.1 24 10.2 NW 28 37 15 20 1011.3 1010.8 0.0
31/11:00am 22.3 14.9 1.9 26 9.7 NNW 30 43 16 23 1011.5 1011.0 0.0
31/10:30am 21.3 14.6 1.6 27 9.3 NNW 26 37 14 20 1012.0 1011.5 0.0
31/10:00am 20.7 14.8 2.0 29 8.8 NNW 22 35 12 19 1012.3 1011.8 0.0
31/09:30am 20.4 14.6 2.3 30 8.6 NNW 22 30 12 16 1012.6 1012.0 0.0
31/09:00am 19.8 15.0 2.6 32 8.1 NNW 17 24 9 13 1013.2 1012.7 0.0
31/08:30am 18.3 14.2 2.2 34 7.5 N 13 20 7 11 1013.4 1012.9 0.0
31/08:00am 16.1 13.1 3.9 44 5.8 NNW 9 15 5 8 1013.8 1013.3 0.0
31/07:30am 13.8 10.3 3.6 50 4.7 N 11 15 6 8 1013.8 1013.3 0.0
31/07:00am 11.7 9.3 4.2 60 3.4 N 6 7 3 4 1013.9 1013.4 0.0
31/06:30am 10.3 7.8 3.6 63 3.0 NW 6 7 3 4 1014.1 1013.6 0.0
31/06:00am 11.0 7.6 3.8 61 3.3 N 11 19 6 10 1013.8 1013.3 0.0
31/05:30am 10.9 6.3 3.9 62 3.2 NNE 17 24 9 13 1013.5 1013.0 0.0
31/05:00am 11.5 6.4 4.0 60 3.4 NNE 20 28 11 15 1013.3 1012.8 0.0
31/04:30am 11.6 6.1 4.1 60 3.4 NNE 22 32 12 17 1013.1 1012.6 0.0
31/04:00am 11.3 6.8 4.3 62 3.2 NNE 17 24 9 13 1013.3 1012.8 0.0
31/03:30am 11.4 6.9 4.4 62 3.2 NNE 17 22 9 12 1013.7 1013.2 0.0
31/03:00am 12.0 7.6 4.5 60 3.5 NNE 17 24 9 13 1014.0 1013.5 0.0
31/02:30am 12.3 7.8 4.3 58 3.7 NNE 17 24 9 13 1014.4 1013.9 0.0
31/02:00am 12.8 8.8 4.8 58 3.8 NNE 15 20 8 11 1014.3 1013.8 0.0
31/01:30am 11.5 8.6 4.7 63 3.2 NE 9 13 5 7 1014.9 1014.5 0.0
31/01:00am 10.9 7.6 4.8 66 2.8 NE 11 13 6 7 1015.5 1015.0 0.0
31/12:30am 10.8 7.6 4.9 67 2.7 NE 11 13 6 7 1015.7 1015.2 0.0
31/12:00am 11.0 8.2 5.1 67 2.7 NE 9 13 5 7 1015.9 1015.4 0.0
 
Date/Time
WST
Temp
°C
App
Temp
°C
Dew
Point
°C
Rel
Hum
%
Delta-T
°C
Wind Press
QNH
hPa
Press
MSL
hPa
Rain since
9am
mm
Dir  Spd
km/h
Gust
km/h
Spd
kts
Gust
kts
30/11:30pm 10.3 8.4 5.1 70 2.4 NNE 4 9 2 5 1016.4 1015.9 0.0
30/11:00pm 11.0 8.8 5.1 67 2.7 NE 6 7 3 4 1016.4 1015.9 0.0
30/10:30pm 11.4 9.1 5.9 69 2.6 NNE 7 9 4 5 1016.6 1016.1 0.0
30/10:00pm 11.3 10.3 5.4 67 2.8 CALM 0 0 0 0 1017.0 1016.5 0.0
30/09:30pm 12.4 10.3 5.6 63 3.2 N 6 9 3 5 1017.0 1016.5 0.0
30/09:00pm 12.5 10.3 6.1 65 3.1 NE 7 7 4 4 1017.0 1016.5 0.0
30/08:30pm 12.6 11.3 6.0 64 3.2 NE 2 6 1 3 1016.9 1016.4 0.0
30/08:00pm 12.9 12.1 6.5 65 3.1 CALM 0 0 0 0 1016.8 1016.3 0.0
30/07:30pm 14.1 13.1 5.5 56 4.1 CALM 0 0 0 0 1016.8 1016.3 0.0
30/07:00pm 14.4 13.3 5.0 53 4.5 CALM 0 0 0 0 1016.6 1016.1 0.0
30/06:30pm 15.5 14.3 4.8 49 5.1 CALM 0 0 0 0 1016.3 1015.8 0.0
30/06:00pm 17.6 16.2 3.5 39 6.7 CALM 0 6 0 3 1016.2 1015.7 0.0
30/05:30pm 18.9 14.9 2.7 34 7.6 WNW 13 17 7 9 1016.2 1015.7 0.0
30/05:00pm 19.7 16.9 3.0 33 8.0 W 7 13 4 7 1015.9 1015.4 0.0
30/04:30pm 19.9 16.3 2.7 32 8.2 W 11 17 6 9 1015.7 1015.2 0.0
30/04:00pm 19.9 15.4 2.3 31 8.3 WNW 15 30 8 16 1015.7 1015.2 0.0
30/03:30pm 19.7 14.8 2.1 31 8.2 WNW 17 24 9 13 1015.8 1015.3 0.0
30/03:00pm 20.1 16.9 3.3 33 8.1 WNW 9 13 5 7 1015.7 1015.2 0.0
30/02:30pm 19.6 16.4 3.3 34 7.8 NW 9 19 5 10 1015.8 1015.3 0.0
30/02:00pm 19.3 15.8 3.5 35 7.6 NW 11 20 6 11 1015.9 1015.4 0.0
30/01:30pm 18.7 15.6 3.7 37 7.2 N 9 15 5 8 1016.2 1015.7 0.0
30/01:00pm 18.0 14.0 4.9 42 6.4 NNW 15 24 8 13 1016.6 1016.1 0.0
30/12:30pm 17.8 14.5 4.4 41 6.5 WNW 11 19 6 10 1017.0 1016.5 0.0
30/12:00pm 17.2 14.7 4.5 43 6.1 NW 7 15 4 8 1017.5 1017.1 0.0
30/11:30am 16.8 14.6 5.1 46 5.7 N 6 15 3 8 1018.1 1017.7 0.0
30/11:00am 15.9 13.4 4.6 47 5.4 NW 7 15 4 8 1018.6 1018.1 0.0
30/10:30am 15.4 12.9 4.8 49 5.1 N 7 13 4 7 1019.0 1018.5 0.0
30/10:00am 14.8 12.7 5.6 54 4.5 NE 6 9 3 5 1019.1 1018.6 0.0
30/09:30am 14.0 12.5 6.6 61 3.6 E 4 9 2 5 1019.2 1018.7 0.0
30/09:00am 13.0 11.5 6.8 66 3.0 NE 4 9 2 5 1019.1 1018.6 0.0
30/08:30am 12.0 11.2 6.5 69 2.7 CALM 0 4 0 2 1019.1 1018.6 0.0
30/08:00am 10.3 8.3 6.3 76 1.9 NW 6 7 3 4 1019.0 1018.5 0.0
30/07:30am 9.0 6.9 5.7 80 1.5 WNW 6 9 3 5 1018.7 1018.2 0.0
30/07:00am 7.8 5.1 5.4 85 1.1 WNW 9 11 5 6 1018.4 1017.9 0.0
30/06:30am 7.0 4.6 5.2 88 0.8 WNW 7 11 4 6 1018.1 1017.7 0.0
30/06:00am 7.0 4.8 5.3 89 0.8 WNW 6 11 3 6 1017.8 1017.4 0.0
30/05:30am 7.3 5.1 5.3 87 0.9 NW 6 7 3 4 1017.4 1017.0 0.0
30/05:00am 7.7 5.4 5.5 86 1.0 WNW 7 9 4 5 1017.0 1016.5 0.0
30/04:30am 7.9 5.7 5.5 85 1.1 W 6 9 3 5 1016.6 1016.1 0.0
30/04:00am 8.3 6.0 5.8 84 1.2 W 7 9 4 5 1016.3 1015.8 0.0
30/03:30am 8.7 6.5 6.0 83 1.3 WNW 7 9 4 5 1016.1 1015.6 0.0
30/03:00am 9.1 7.0 5.8 80 1.5 SW 6 9 3 5 1016.1 1015.6 0.0
30/02:30am 10.1 7.9 6.3 77 1.8 SW 7 11 4 6 1016.1 1015.6 0.0
30/02:00am 10.4 7.9 6.4 76 1.9 SW 9 13 5 7 1016.2 1015.7 0.0
30/01:30am 10.1 8.1 6.1 76 1.9 SW 6 7 3 4 1016.4 1015.9 0.0
30/01:00am 10.3 7.7 6.1 75 2.0 SSW 9 13 5 7 1016.4 1015.9 0.0
30/12:30am 10.6 8.4 6.2 74 2.1 SSW 7 9 4 5 1016.4 1015.9 0.0
30/12:00am 10.7 8.1 6.1 73 2.2 SSW 9 11 5 6 1016.6 1016.1 0.0
 
Date/Time
WST
Temp
°C
App
Temp
°C
Dew
Point
°C
Rel
Hum
%
Delta-T
°C
Wind Press
QNH
hPa
Press
MSL
hPa
Rain since
9am
mm
Dir  Spd
km/h
Gust
km/h
Spd
kts
Gust
kts
29/11:30pm 10.9 8.9 6.3 73 2.2 S 6 9 3 5 1016.6 1016.1 0.0
29/11:00pm 11.3 9.2 6.0 70 2.5 WSW 6 9 3 5 1016.3 1015.8 0.0
29/10:30pm 12.1 9.9 6.2 67 2.8 WSW 7 9 4 5 1016.1 1015.6 0.0
29/10:00pm 12.9 10.3 6.3 64 3.2 WSW 9 13 5 7 1016.0 1015.5 0.0
29/09:30pm 12.8 10.2 6.2 64 3.2 SW 9 13 5 7 1015.9 1015.4 0.0
29/09:00pm 13.2 10.6 5.9 61 3.5 WSW 9 11 5 6 1015.8 1015.3 0.0
29/08:30pm 13.4 10.7 5.6 59 3.7 WSW 9 11 5 6 1015.9 1015.4 0.0
29/08:00pm 13.6 10.8 5.3 57 4.0 SW 9 15 5 8 1015.6 1015.1 0.0
29/07:30pm 13.7 10.2 5.3 57 4.0 W 13 15 7 8 1015.3 1014.9 0.0
29/07:00pm 13.1 10.6 5.0 58 3.8 WSW 7 9 4 5 1014.8 1014.3 0.0
29/06:30pm 13.5 10.6 4.6 55 4.2 SW 9 11 5 6 1014.4 1013.9 0.0
29/06:00pm 14.4 11.0 4.1 50 4.8 SW 11 17 6 9 1014.0 1013.5 0.0
29/05:30pm 15.2 11.4 4.0 47 5.3 SW 13 20 7 11 1013.7 1013.2 0.0
29/05:00pm 15.4 11.0 4.5 48 5.2 SW 17 28 9 15 1013.3 1012.8 0.0
29/04:30pm 16.0 11.0 4.4 46 5.5 SW 20 28 11 15 1012.9 1012.4 0.0
29/04:00pm 15.7 11.2 4.4 47 5.4 SW 17 24 9 13 1012.6 1012.0 0.0
29/03:30pm 15.9 11.5 4.6 47 5.4 SW 17 24 9 13 1012.2 1011.7 0.0
29/03:00pm 15.8 11.0 4.8 48 5.3 SW 19 28 10 15 1012.1 1011.6 0.0
29/02:30pm 15.9 11.1 4.6 47 5.4 WSW 19 30 10 16 1011.9 1011.4 0.0
29/02:00pm 15.8 11.0 4.8 48 5.3 SW 19 28 10 15 1011.8 1011.3 0.0
29/01:30pm 15.9 11.1 4.6 47 5.4 WSW 19 28 10 15 1011.8 1011.3 0.0
29/01:00pm 15.6 10.6 4.6 48 5.3 SW 20 33 11 18 1012.0 1011.5 0.0
29/12:30pm 15.3 10.5 4.7 49 5.1 SSW 19 28 10 15 1012.2 1011.7 0.0
29/12:00pm 15.1 10.8 5.3 52 4.7 SW 17 30 9 16 1012.4 1011.9 0.0
29/11:30am 14.5 9.6 5.0 53 4.5 WSW 20 28 11 15 1012.7 1012.2 0.0
29/11:00am 14.4 10.1 5.2 54 4.4 SW 17 28 9 15 1013.0 1012.5 0.0
29/10:30am 14.2 9.4 5.8 57 4.1 SW 20 30 11 16 1013.2 1012.7 0.0
29/10:00am 13.5 9.1 6.6 63 3.4 SW 19 26 10 14 1013.3 1012.8 0.0
29/09:30am 12.5 8.0 6.8 68 2.8 WSW 20 32 11 17 1013.4 1012.9 0.0
29/09:00am 12.0 7.5 6.9 71 2.5 SW 20 28 11 15 1013.3 1012.8 0.2
29/08:30am 10.7 6.6 7.8 82 1.4 WSW 19 26 10 14 1013.4 1012.9 0.2
29/08:00am 10.2 5.9 8.0 86 1.1 WSW 20 26 11 14 1013.2 1012.7 0.2
29/07:30am 11.0 7.8 6.9 76 2.0 WSW 13 20 7 11 1012.8 1012.3 0.2
29/07:00am 10.4 7.5 6.7 78 1.8 WSW 11 17 6 9 1012.2 1011.7 0.2
29/06:30am 10.2 6.9 6.5 78 1.8 WSW 13 19 7 10 1011.9 1011.4 0.2
29/06:00am 10.2 7.0 6.7 79 1.7 WSW 13 19 7 10 1011.6 1011.1 0.2
29/05:30am 10.2 6.6 6.9 80 1.6 WSW 15 22 8 12 1011.4 1010.9 0.2
29/05:00am 10.0 5.7 7.1 82 1.4 WSW 19 28 10 15 1011.1 1010.6 0.2
29/04:30am 9.5 6.4 7.4 87 1.0 W 13 17 7 9 1010.8 1010.3 0.2
29/04:00am 8.8 6.4 6.9 88 0.9 W 9 11 5 6 1010.6 1010.1 0.2
29/03:30am 9.2 6.4 6.8 85 1.1 W 11 13 6 7 1010.3 1009.8 0.2
29/03:00am 10.1 6.9 6.8 80 1.6 W 13 19 7 10 1010.2 1009.6 0.2
29/02:30am 10.2 6.3 6.9 80 1.6 W 17 22 9 12 1010.5 1010.0 0.2
29/02:00am 9.8 5.9 7.1 83 1.3 W 17 20 9 11 1010.5 1010.0 0.2
29/01:30am 9.7 6.6 7.3 85 1.2 W 13 19 7 10 1010.8 1010.3 0.2
29/01:00am 9.9 6.8 7.2 83 1.3 WNW 13 19 7 10 1010.9 1010.4 0.2
29/12:30am 10.3 6.8 7.4 82 1.4 W 15 19 8 10 1011.2 1010.7 0.2
29/12:00am 10.2 7.1 7.1 81 1.5 W 13 17 7 9 1011.2 1010.7 0.2
 
Date/Time
WST
Temp
°C
App
Temp
°C
Dew
Point
°C
Rel
Hum
%
Delta-T
°C
Wind Press
QNH
hPa
Press
MSL
hPa
Rain since
9am
mm
Dir  Spd
km/h
Gust
km/h
Spd
kts
Gust
kts
28/11:30pm 10.6 6.7 7.1 79 1.7 W 17 20 9 11 1011.2 1010.7 0.2
28/11:00pm 11.1 7.2 7.0 76 2.0 W 17 22 9 12 1011.2 1010.7 0.2
28/10:30pm 11.8 7.9 7.1 73 2.3 W 17 24 9 13 1011.3 1010.8 0.2
28/10:00pm 12.2 8.2 6.7 69 2.7 W 17 20 9 11 1011.3 1010.8 0.2
28/09:30pm 12.3 8.6 6.1 66 3.0 W 15 19 8 10 1011.1 1010.6 0.2
28/09:00pm 12.0 8.3 6.1 67 2.8 W 15 19 8 10 1011.0 1010.5 0.2
28/08:30pm 11.6 8.2 5.9 68 2.7 W 13 17 7 9 1010.8 1010.3 0.2
28/08:00pm 11.6 8.4 5.3 65 3.0 WNW 11 13 6 7 1010.5 1010.0 0.2
28/07:30pm 12.4 8.8 5.1 61 3.4 W 13 17 7 9 1010.2 1009.6 0.2
28/07:00pm 12.7 9.6 5.4 61 3.5 WSW 11 17 6 9 1009.8 1009.2 0.2
28/06:30pm 13.4 9.9 5.3 58 3.9 WSW 13 17 7 9 1009.4 1008.9 0.2
28/06:00pm 14.0 9.2 4.9 54 4.3 SW 19 28 10 15 1009.1 1008.6 0.2
28/05:30pm 15.1 9.4 5.0 51 4.8 WSW 24 35 13 19 1008.9 1008.4 0.2
28/05:00pm 15.7 8.2 3.5 44 5.7 W 32 43 17 23 1008.5 1008.0 0.2
28/04:36pm 16.3 8.3 3.7 43 5.9 W 35 54 19 29 1008.2 1007.7 0.2
28/04:30pm 16.2 7.8 3.6 43 5.9 W 37 52 20 28 1008.1 1007.6 0.2
28/04:00pm 16.9 9.1 4.9 45 5.8 W 35 54 19 29 1007.8 1007.2 0.2
28/03:57pm 16.8 8.9 4.5 44 5.9 WSW 35 54 19 29 1007.7 1007.1 0.2

Other Formats:

Comma delimited format used in spreadsheet applications
http://www.bom.gov.au/fwo/IDW60801/IDW60801.94450.axf

JavaScript Object Notation format (JSON) in row-major order
http://www.bom.gov.au/fwo/IDW60801/IDW60801.94450.json